sensor_id;sensor_type;location;lat;lon;timestamp;pressure;altitude;pressure_sealevel;temperature;humidity
29359;BME280;16347;53.232;6.556;2022-12-13T00:01:44;101305.25;;;2.88;59.43
29359;BME280;16347;53.232;6.556;2022-12-13T00:04:12;101313.59;;;2.83;59.58
29359;BME280;16347;53.232;6.556;2022-12-13T00:06:40;101301.88;;;2.84;59.20
29359;BME280;16347;53.232;6.556;2022-12-13T00:09:09;101309.41;;;2.65;59.67
29359;BME280;16347;53.232;6.556;2022-12-13T00:11:40;101299.41;;;2.67;59.91
29359;BME280;16347;53.232;6.556;2022-12-13T00:14:09;101293.84;;;2.56;60.08
29359;BME280;16347;53.232;6.556;2022-12-13T00:16:42;101297.00;;;2.63;59.86
29359;BME280;16347;53.232;6.556;2022-12-13T00:19:13;101298.16;;;2.73;60.19
29359;BME280;16347;53.232;6.556;2022-12-13T00:21:41;101297.31;;;2.44;59.87
29359;BME280;16347;53.232;6.556;2022-12-13T00:24:10;101289.00;;;2.48;60.40
29359;BME280;16347;53.232;6.556;2022-12-13T00:26:38;101290.78;;;2.62;59.94
29359;BME280;16347;53.232;6.556;2022-12-13T00:29:07;101290.69;;;2.49;59.50
29359;BME280;16347;53.232;6.556;2022-12-13T00:31:36;101283.72;;;2.47;60.18
29359;BME280;16347;53.232;6.556;2022-12-13T00:34:24;101290.22;;;2.57;60.87
29359;BME280;16347;53.232;6.556;2022-12-13T00:36:52;101289.63;;;2.66;61.27
29359;BME280;16347;53.232;6.556;2022-12-13T00:39:20;101289.41;;;2.83;61.34
29359;BME280;16347;53.232;6.556;2022-12-13T00:41:48;101294.97;;;2.94;59.82
29359;BME280;16347;53.232;6.556;2022-12-13T00:44:18;101295.25;;;2.90;58.94
29359;BME280;16347;53.232;6.556;2022-12-13T00:46:46;101290.38;;;2.82;58.46
29359;BME280;16347;53.232;6.556;2022-12-13T00:49:17;101286.00;;;2.67;58.89
29359;BME280;16347;53.232;6.556;2022-12-13T00:51:45;101284.44;;;2.77;58.78
29359;BME280;16347;53.232;6.556;2022-12-13T00:54:15;101281.75;;;2.77;59.18
29359;BME280;16347;53.232;6.556;2022-12-13T00:56:43;101281.56;;;2.80;58.26
29359;BME280;16347;53.232;6.556;2022-12-13T00:59:12;101282.44;;;2.81;58.67
29359;BME280;16347;53.232;6.556;2022-12-13T01:01:42;101277.75;;;2.56;58.41
29359;BME280;16347;53.232;6.556;2022-12-13T01:04:11;101278.03;;;2.66;58.48
29359;BME280;16347;53.232;6.556;2022-12-13T01:06:41;101278.13;;;2.64;58.79
29359;BME280;16347;53.232;6.556;2022-12-13T01:09:16;101273.84;;;2.62;58.97
29359;BME280;16347;53.232;6.556;2022-12-13T01:11:45;101280.50;;;2.69;58.72
29359;BME280;16347;53.232;6.556;2022-12-13T01:14:13;101278.13;;;2.78;58.76
29359;BME280;16347;53.232;6.556;2022-12-13T01:16:43;101273.91;;;2.74;58.34
29359;BME280;16347;53.232;6.556;2022-12-13T01:19:11;101275.66;;;2.61;58.49
29359;BME280;16347;53.232;6.556;2022-12-13T01:21:39;101278.41;;;2.59;58.84
29359;BME280;16347;53.232;6.556;2022-12-13T01:24:07;101279.88;;;2.65;58.88
29359;BME280;16347;53.232;6.556;2022-12-13T01:26:36;101279.34;;;2.73;59.60
29359;BME280;16347;53.232;6.556;2022-12-13T01:29:04;101279.13;;;2.90;59.82
29359;BME280;16347;53.232;6.556;2022-12-13T01:31:32;101265.16;;;2.85;58.98
29359;BME280;16347;53.232;6.556;2022-12-13T01:34:01;101276.16;;;2.94;58.45
29359;BME280;16347;53.232;6.556;2022-12-13T01:36:37;101273.47;;;2.94;57.84
29359;BME280;16347;53.232;6.556;2022-12-13T01:39:06;101275.25;;;2.81;58.21
29359;BME280;16347;53.232;6.556;2022-12-13T01:41:41;101272.91;;;2.89;58.81
29359;BME280;16347;53.232;6.556;2022-12-13T01:47:11;101271.28;;;2.87;57.76
29359;BME280;16347;53.232;6.556;2022-12-13T01:49:41;101275.59;;;2.89;59.13
29359;BME280;16347;53.232;6.556;2022-12-13T01:52:11;101273.28;;;2.97;58.96
29359;BME280;16347;53.232;6.556;2022-12-13T01:54:45;101284.94;;;3.10;59.32
29359;BME280;16347;53.232;6.556;2022-12-13T01:57:14;101276.06;;;3.23;57.92
29359;BME280;16347;53.232;6.556;2022-12-13T01:59:44;101283.22;;;3.09;58.33
29359;BME280;16347;53.232;6.556;2022-12-13T02:02:14;101272.47;;;3.09;57.97
29359;BME280;16347;53.232;6.556;2022-12-13T02:04:50;101278.41;;;3.15;58.53
29359;BME280;16347;53.232;6.556;2022-12-13T02:07:26;101281.63;;;3.20;57.38
29359;BME280;16347;53.232;6.556;2022-12-13T02:09:58;101271.88;;;3.19;56.72
29359;BME280;16347;53.232;6.556;2022-12-13T02:12:29;101280.72;;;3.06;56.76
29359;BME280;16347;53.232;6.556;2022-12-13T02:14:58;101273.00;;;2.88;57.34
29359;BME280;16347;53.232;6.556;2022-12-13T02:17:35;101268.34;;;2.77;57.55
29359;BME280;16347;53.232;6.556;2022-12-13T02:20:36;101269.19;;;2.92;57.60
29359;BME280;16347;53.232;6.556;2022-12-13T02:23:32;101264.47;;;2.95;58.67
29359;BME280;16347;53.232;6.556;2022-12-13T02:26:19;101257.63;;;3.04;58.37
29359;BME280;16347;53.232;6.556;2022-12-13T02:29:06;101257.69;;;3.02;58.20
29359;BME280;16347;53.232;6.556;2022-12-13T02:31:41;101256.41;;;2.95;58.88
29359;BME280;16347;53.232;6.556;2022-12-13T02:34:17;101254.94;;;3.04;58.32
29359;BME280;16347;53.232;6.556;2022-12-13T02:36:53;101250.53;;;2.89;57.49
29359;BME280;16347;53.232;6.556;2022-12-13T02:39:28;101258.97;;;2.97;58.36
29359;BME280;16347;53.232;6.556;2022-12-13T02:42:00;101251.22;;;2.92;57.41
29359;BME280;16347;53.232;6.556;2022-12-13T02:44:34;101246.72;;;2.93;57.40
29359;BME280;16347;53.232;6.556;2022-12-13T02:47:09;101250.53;;;2.89;57.61
29359;BME280;16347;53.232;6.556;2022-12-13T02:49:50;101247.59;;;2.79;57.32
29359;BME280;16347;53.232;6.556;2022-12-13T02:52:24;101249.41;;;2.79;57.82
29359;BME280;16347;53.232;6.556;2022-12-13T02:54:54;101247.81;;;2.76;57.53
29359;BME280;16347;53.232;6.556;2022-12-13T02:57:27;101254.38;;;2.58;57.78
29359;BME280;16347;53.232;6.556;2022-12-13T02:59:57;101247.00;;;2.47;58.00
29359;BME280;16347;53.232;6.556;2022-12-13T03:02:37;101247.59;;;2.38;58.06
29359;BME280;16347;53.232;6.556;2022-12-13T03:05:16;101241.72;;;2.32;58.39
29359;BME280;16347;53.232;6.556;2022-12-13T03:08:16;101243.09;;;2.25;59.20
29359;BME280;16347;53.232;6.556;2022-12-13T03:10:55;101243.25;;;2.36;59.36
29359;BME280;16347;53.232;6.556;2022-12-13T03:13:31;101243.66;;;2.44;59.61
29359;BME280;16347;53.232;6.556;2022-12-13T03:16:08;101249.22;;;2.41;58.37
29359;BME280;16347;53.232;6.556;2022-12-13T03:18:39;101244.91;;;2.38;58.66
29359;BME280;16347;53.232;6.556;2022-12-13T03:21:08;101243.72;;;2.42;58.53
29359;BME280;16347;53.232;6.556;2022-12-13T03:23:38;101243.84;;;2.41;58.15
29359;BME280;16347;53.232;6.556;2022-12-13T03:26:09;101245.78;;;2.25;58.26
29359;BME280;16347;53.232;6.556;2022-12-13T03:28:39;101249.22;;;2.13;58.75
29359;BME280;16347;53.232;6.556;2022-12-13T03:31:08;101242.91;;;2.14;59.08
29359;BME280;16347;53.232;6.556;2022-12-13T03:33:36;101239.16;;;2.16;58.90
29359;BME280;16347;53.232;6.556;2022-12-13T03:36:07;101242.91;;;2.14;58.70
29359;BME280;16347;53.232;6.556;2022-12-13T03:38:36;101245.94;;;1.93;58.54
29359;BME280;16347;53.232;6.556;2022-12-13T03:41:08;101246.78;;;1.80;59.21
29359;BME280;16347;53.232;6.556;2022-12-13T03:43:37;101244.00;;;1.67;60.41
29359;BME280;16347;53.232;6.556;2022-12-13T03:46:06;101248.41;;;1.82;60.03
29359;BME280;16347;53.232;6.556;2022-12-13T03:48:35;101230.91;;;1.91;59.40
29359;BME280;16347;53.232;6.556;2022-12-13T03:51:04;101239.41;;;1.83;59.46
29359;BME280;16347;53.232;6.556;2022-12-13T03:53:34;101242.97;;;1.84;59.07
29359;BME280;16347;53.232;6.556;2022-12-13T03:56:04;101236.94;;;1.80;59.60
29359;BME280;16347;53.232;6.556;2022-12-13T03:58:34;101236.75;;;1.83;59.38
29359;BME280;16347;53.232;6.556;2022-12-13T04:01:05;101232.59;;;1.64;59.84
29359;BME280;16347;53.232;6.556;2022-12-13T04:03:33;101232.28;;;1.54;59.69
29359;BME280;16347;53.232;6.556;2022-12-13T04:06:02;101231.47;;;1.68;59.64
29359;BME280;16347;53.232;6.556;2022-12-13T04:08:31;101224.31;;;1.52;60.01
29359;BME280;16347;53.232;6.556;2022-12-13T04:11:01;101224.13;;;1.55;59.80
29359;BME280;16347;53.232;6.556;2022-12-13T04:13:52;101223.28;;;1.55;59.83
29359;BME280;16347;53.232;6.556;2022-12-13T04:16:19;101225.28;;;1.51;59.92
29359;BME280;16347;53.232;6.556;2022-12-13T04:18:48;101220.84;;;1.36;60.33
29359;BME280;16347;53.232;6.556;2022-12-13T04:21:16;101224.69;;;1.46;60.10
29359;BME280;16347;53.232;6.556;2022-12-13T04:23:44;101225.16;;;1.39;60.15
29359;BME280;16347;53.232;6.556;2022-12-13T04:26:13;101225.47;;;1.19;60.31
29359;BME280;16347;53.232;6.556;2022-12-13T04:28:42;101216.50;;;1.20;60.97
29359;BME280;16347;53.232;6.556;2022-12-13T04:31:17;101216.16;;;1.10;61.25
29359;BME280;16347;53.232;6.556;2022-12-13T04:33:45;101213.00;;;1.18;61.34
29359;BME280;16347;53.232;6.556;2022-12-13T04:36:13;101217.38;;;1.34;61.13
29359;BME280;16347;53.232;6.556;2022-12-13T04:38:59;101218.28;;;1.49;61.24
29359;BME280;16347;53.232;6.556;2022-12-13T04:41:33;101213.78;;;1.49;60.46
29359;BME280;16347;53.232;6.556;2022-12-13T04:44:03;101208.38;;;1.65;60.17
29359;BME280;16347;53.232;6.556;2022-12-13T04:46:31;101203.78;;;1.67;60.03
29359;BME280;16347;53.232;6.556;2022-12-13T04:49:00;101203.88;;;1.80;60.06
29359;BME280;16347;53.232;6.556;2022-12-13T04:51:28;101195.19;;;1.90;60.16
29359;BME280;16347;53.232;6.556;2022-12-13T04:53:57;101195.75;;;2.10;60.58
29359;BME280;16347;53.232;6.556;2022-12-13T04:56:48;101187.44;;;2.14;59.46
29359;BME280;16347;53.232;6.556;2022-12-13T04:59:16;101187.72;;;2.24;59.40
29359;BME280;16347;53.232;6.556;2022-12-13T05:01:44;101193.28;;;2.06;58.09
29359;BME280;16347;53.232;6.556;2022-12-13T05:04:12;101188.19;;;2.16;58.34
29359;BME280;16347;53.232;6.556;2022-12-13T05:06:40;101190.78;;;2.18;58.23
29359;BME280;16347;53.232;6.556;2022-12-13T05:09:08;101185.22;;;2.21;57.88
29359;BME280;16347;53.232;6.556;2022-12-13T05:11:37;101183.78;;;2.15;58.38
29359;BME280;16347;53.232;6.556;2022-12-13T05:14:13;101192.22;;;2.09;58.02
29359;BME280;16347;53.232;6.556;2022-12-13T05:16:49;101187.81;;;2.08;57.74
29359;BME280;16347;53.232;6.556;2022-12-13T05:19:18;101184.56;;;2.03;57.82
29359;BME280;16347;53.232;6.556;2022-12-13T05:21:57;101184.06;;;1.96;58.12
29359;BME280;16347;53.232;6.556;2022-12-13T05:24:29;101181.31;;;1.84;58.27
29359;BME280;16347;53.232;6.556;2022-12-13T05:26:58;101179.19;;;2.03;58.77
29359;BME280;16347;53.232;6.556;2022-12-13T05:29:27;101175.25;;;2.08;59.11
29359;BME280;16347;53.232;6.556;2022-12-13T05:31:55;101177.38;;;2.18;58.95
29359;BME280;16347;53.232;6.556;2022-12-13T05:34:24;101174.66;;;2.32;58.87
29359;BME280;16347;53.232;6.556;2022-12-13T05:36:52;101186.81;;;2.37;58.02
29359;BME280;16347;53.232;6.556;2022-12-13T05:39:20;101178.66;;;2.39;57.40
29359;BME280;16347;53.232;6.556;2022-12-13T05:41:56;101180.41;;;2.40;57.37
29359;BME280;16347;53.232;6.556;2022-12-13T05:44:30;101165.38;;;2.37;57.28
29359;BME280;16347;53.232;6.556;2022-12-13T05:46:59;101172.38;;;2.26;57.55
29359;BME280;16347;53.232;6.556;2022-12-13T05:49:29;101173.34;;;2.25;57.70
29359;BME280;16347;53.232;6.556;2022-12-13T05:51:58;101174.00;;;2.28;57.81
29359;BME280;16347;53.232;6.556;2022-12-13T05:54:26;101173.69;;;2.33;57.80
29359;BME280;16347;53.232;6.556;2022-12-13T05:56:54;101180.41;;;2.40;57.55
29359;BME280;16347;53.232;6.556;2022-12-13T05:59:22;101176.19;;;2.36;57.08
29359;BME280;16347;53.232;6.556;2022-12-13T06:01:52;101176.84;;;2.39;56.81
29359;BME280;16347;53.232;6.556;2022-12-13T06:04:20;101180.59;;;2.37;57.10
29359;BME280;16347;53.232;6.556;2022-12-13T06:06:49;101177.66;;;2.27;57.75
29359;BME280;16347;53.232;6.556;2022-12-13T06:09:18;101181.84;;;2.31;58.04
29359;BME280;16347;53.232;6.556;2022-12-13T06:11:47;101183.66;;;2.45;58.24
29359;BME280;16347;53.232;6.556;2022-12-13T06:14:15;101180.84;;;2.46;57.53
29359;BME280;16347;53.232;6.556;2022-12-13T06:16:49;101180.63;;;2.64;57.44
29359;BME280;16347;53.232;6.556;2022-12-13T06:19:18;101182.31;;;2.38;57.15
29359;BME280;16347;53.232;6.556;2022-12-13T06:21:46;101172.94;;;2.45;57.47
29359;BME280;16347;53.232;6.556;2022-12-13T06:24:16;101174.44;;;2.49;57.39
29359;BME280;16347;53.232;6.556;2022-12-13T06:26:44;101175.59;;;2.45;56.91
29359;BME280;16347;53.232;6.556;2022-12-13T06:29:13;101179.78;;;2.49;57.10
29359;BME280;16347;53.232;6.556;2022-12-13T06:31:56;101189.88;;;2.45;56.63
29359;BME280;16347;53.232;6.556;2022-12-13T06:34:32;101178.78;;;2.37;56.94
29359;BME280;16347;53.232;6.556;2022-12-13T06:37:03;101179.84;;;2.35;56.75
29359;BME280;16347;53.232;6.556;2022-12-13T06:39:31;101185.69;;;2.13;57.39
29359;BME280;16347;53.232;6.556;2022-12-13T06:42:01;101179.19;;;2.17;57.31
29359;BME280;16347;53.232;6.556;2022-12-13T06:44:32;101187.03;;;2.06;57.54
29359;BME280;16347;53.232;6.556;2022-12-13T06:47:03;101195.78;;;1.81;58.27
29359;BME280;16347;53.232;6.556;2022-12-13T06:49:40;101188.00;;;1.77;58.46
29359;BME280;16347;53.232;6.556;2022-12-13T06:52:13;101197.44;;;1.68;59.10
29359;BME280;16347;53.232;6.556;2022-12-13T06:54:47;101190.19;;;1.70;58.96
29359;BME280;16347;53.232;6.556;2022-12-13T06:57:15;101191.94;;;1.71;58.98
29359;BME280;16347;53.232;6.556;2022-12-13T06:59:43;101191.75;;;1.74;58.88
29359;BME280;16347;53.232;6.556;2022-12-13T07:02:11;101199.19;;;1.69;58.52
29359;BME280;16347;53.232;6.556;2022-12-13T07:04:53;101195.16;;;1.62;58.86
29359;BME280;16347;53.232;6.556;2022-12-13T07:07:22;101195.16;;;1.62;59.02
29359;BME280;16347;53.232;6.556;2022-12-13T07:09:50;101189.59;;;1.65;58.89
29359;BME280;16347;53.232;6.556;2022-12-13T07:12:19;101199.22;;;1.39;58.89
29359;BME280;16347;53.232;6.556;2022-12-13T07:14:47;101189.59;;;1.51;59.07
29359;BME280;16347;53.232;6.556;2022-12-13T07:17:16;101187.38;;;1.43;59.33
29359;BME280;16347;53.232;6.556;2022-12-13T07:20:04;101194.59;;;1.57;59.19
29359;BME280;16347;53.232;6.556;2022-12-13T07:22:35;101190.25;;;1.40;59.50
29359;BME280;16347;53.232;6.556;2022-12-13T07:25:13;101188.06;;;1.47;59.21
29359;BME280;16347;53.232;6.556;2022-12-13T07:27:58;101193.38;;;1.33;60.19
29359;BME280;16347;53.232;6.556;2022-12-13T07:30:30;101184.44;;;1.18;59.70
29359;BME280;16347;53.232;6.556;2022-12-13T07:32:59;101193.56;;;1.30;59.63
29359;BME280;16347;53.232;6.556;2022-12-13T07:35:30;101194.13;;;1.05;59.91
29359;BME280;16347;53.232;6.556;2022-12-13T07:38:04;101187.59;;;0.95;60.53
29359;BME280;16347;53.232;6.556;2022-12-13T07:40:32;101207.38;;;0.92;60.44
29359;BME280;16347;53.232;6.556;2022-12-13T07:43:00;101203.91;;;1.06;60.38
29359;BME280;16347;53.232;6.556;2022-12-13T07:45:29;101198.72;;;1.03;60.26
29359;BME280;16347;53.232;6.556;2022-12-13T07:47:57;101196.13;;;1.01;60.43
29359;BME280;16347;53.232;6.556;2022-12-13T07:50:25;101198.63;;;1.04;60.12
29359;BME280;16347;53.232;6.556;2022-12-13T07:53:06;101206.47;;;1.08;60.19
29359;BME280;16347;53.232;6.556;2022-12-13T07:55:34;101210.44;;;1.16;59.93
29359;BME280;16347;53.232;6.556;2022-12-13T07:58:05;101204.16;;;1.01;60.05
29359;BME280;16347;53.232;6.556;2022-12-13T08:00:34;101211.50;;;1.14;60.00
29359;BME280;16347;53.232;6.556;2022-12-13T08:03:02;101209.69;;;1.14;60.17
29359;BME280;16347;53.232;6.556;2022-12-13T08:05:31;101215.38;;;1.08;59.86
29359;BME280;16347;53.232;6.556;2022-12-13T08:08:07;101217.38;;;1.04;60.25
29359;BME280;16347;53.232;6.556;2022-12-13T08:10:36;101226.72;;;0.82;60.75
29359;BME280;16347;53.232;6.556;2022-12-13T08:13:04;101222.69;;;0.90;60.96
29359;BME280;16347;53.232;6.556;2022-12-13T08:15:33;101217.84;;;0.97;60.50
29359;BME280;16347;53.232;6.556;2022-12-13T08:18:01;101224.22;;;0.94;60.62
29359;BME280;16347;53.232;6.556;2022-12-13T08:20:29;101233.22;;;0.93;60.83
29359;BME280;16347;53.232;6.556;2022-12-13T08:22:58;101224.81;;;0.99;60.70
29359;BME280;16347;53.232;6.556;2022-12-13T08:25:30;101216.84;;;1.14;60.67
29359;BME280;16347;53.232;6.556;2022-12-13T08:27:58;101226.25;;;1.05;60.79
29359;BME280;16347;53.232;6.556;2022-12-13T08:30:29;101217.06;;;1.25;60.75
29359;BME280;16347;53.232;6.556;2022-12-13T08:32:58;101225.72;;;1.30;60.19
29359;BME280;16347;53.232;6.556;2022-12-13T08:35:31;101225.53;;;1.33;59.96
29359;BME280;16347;53.232;6.556;2022-12-13T08:38:01;101224.41;;;1.21;60.29
29359;BME280;16347;53.232;6.556;2022-12-13T08:40:30;101237.59;;;1.40;60.62
29359;BME280;16347;53.232;6.556;2022-12-13T08:42:59;101240.16;;;1.27;60.39
29359;BME280;16347;53.232;6.556;2022-12-13T08:45:27;101244.78;;;1.39;60.10
29359;BME280;16347;53.232;6.556;2022-12-13T08:47:57;101242.97;;;1.40;60.11
29359;BME280;16347;53.232;6.556;2022-12-13T08:50:26;101249.31;;;1.53;59.47
29359;BME280;16347;53.232;6.556;2022-12-13T08:52:55;101241.53;;;1.48;59.54
29359;BME280;16347;53.232;6.556;2022-12-13T08:55:23;101241.78;;;1.30;59.71
29359;BME280;16347;53.232;6.556;2022-12-13T08:58:03;101243.34;;;1.48;60.17
29359;BME280;16347;53.232;6.556;2022-12-13T09:00:33;101249.56;;;1.48;59.75
29359;BME280;16347;53.232;6.556;2022-12-13T09:03:03;101248.06;;;1.29;60.68
29359;BME280;16347;53.232;6.556;2022-12-13T09:05:37;101247.72;;;1.35;60.45
29359;BME280;16347;53.232;6.556;2022-12-13T09:08:05;101248.31;;;1.40;60.39
29359;BME280;16347;53.232;6.556;2022-12-13T09:10:57;101239.72;;;1.49;60.53
29359;BME280;16347;53.232;6.556;2022-12-13T09:13:28;101246.81;;;1.50;60.15
29359;BME280;16347;53.232;6.556;2022-12-13T09:15:58;101250.94;;;1.55;60.14
29359;BME280;16347;53.232;6.556;2022-12-13T09:18:27;101253.50;;;1.43;60.55
29359;BME280;16347;53.232;6.556;2022-12-13T09:21:06;101266.69;;;1.46;60.82
29359;BME280;16347;53.232;6.556;2022-12-13T09:23:38;101270.38;;;1.29;60.99
29359;BME280;16347;53.232;6.556;2022-12-13T09:26:13;101255.66;;;1.36;61.37
29359;BME280;16347;53.232;6.556;2022-12-13T09:28:43;101265.44;;;1.37;61.31
29359;BME280;16347;53.232;6.556;2022-12-13T09:31:13;101263.97;;;1.32;60.89
29359;BME280;16347;53.232;6.556;2022-12-13T09:33:44;101269.91;;;1.07;61.68
29359;BME280;16347;53.232;6.556;2022-12-13T09:36:14;101265.94;;;1.14;61.84
29359;BME280;16347;53.232;6.556;2022-12-13T09:38:43;101264.25;;;1.27;61.37
29359;BME280;16347;53.232;6.556;2022-12-13T09:41:16;101260.09;;;1.22;61.45
29359;BME280;16347;53.232;6.556;2022-12-13T09:43:59;101259.13;;;1.38;61.55
29359;BME280;16347;53.232;6.556;2022-12-13T09:46:31;101263.22;;;1.30;61.15
29359;BME280;16347;53.232;6.556;2022-12-13T09:49:13;101255.50;;;1.39;61.58
29359;BME280;16347;53.232;6.556;2022-12-13T09:51:51;101256.28;;;1.55;61.39
29359;BME280;16347;53.232;6.556;2022-12-13T09:54:38;101246.81;;;1.50;60.75
29359;BME280;16347;53.232;6.556;2022-12-13T09:57:17;101250.25;;;1.52;60.99
29359;BME280;16347;53.232;6.556;2022-12-13T10:00:04;101245.81;;;1.37;61.13
29359;BME280;16347;53.232;6.556;2022-12-13T10:02:42;101241.34;;;1.37;61.22
29359;BME280;16347;53.232;6.556;2022-12-13T10:05:21;101241.34;;;1.37;61.02
29359;BME280;16347;53.232;6.556;2022-12-13T10:08:07;101235.97;;;1.37;61.31
29359;BME280;16347;53.232;6.556;2022-12-13T10:10:35;101229.75;;;1.37;61.73
29359;BME280;16347;53.232;6.556;2022-12-13T10:13:15;101226.28;;;1.35;62.10
29359;BME280;16347;53.232;6.556;2022-12-13T10:15:49;101223.25;;;1.41;62.01
29359;BME280;16347;53.232;6.556;2022-12-13T10:18:20;101224.69;;;1.46;62.19
29359;BME280;16347;53.232;6.556;2022-12-13T10:20:50;101211.19;;;1.48;62.00
29359;BME280;16347;53.232;6.556;2022-12-13T10:23:19;101217.84;;;1.57;62.00
29359;BME280;16347;53.232;6.556;2022-12-13T10:26:09;101206.66;;;1.64;61.80
29359;BME280;16347;53.232;6.556;2022-12-13T10:29:00;101204.09;;;1.77;61.96
29359;BME280;16347;53.232;6.556;2022-12-13T10:31:38;101197.22;;;2.01;61.83
29359;BME280;16347;53.232;6.556;2022-12-13T10:34:15;101193.53;;;2.02;61.36
29359;BME280;16347;53.232;6.556;2022-12-13T10:36:46;101191.72;;;1.88;60.92
29359;BME280;16347;53.232;6.556;2022-12-13T10:39:17;101195.06;;;1.92;61.45
29359;BME280;16347;53.232;6.556;2022-12-13T10:41:46;101187.31;;;2.01;61.55
29359;BME280;16347;53.232;6.556;2022-12-13T10:44:21;101186.16;;;2.20;61.07
29359;BME280;16347;53.232;6.556;2022-12-13T10:47:04;101183.22;;;2.24;60.89
29359;BME280;16347;53.232;6.556;2022-12-13T10:49:48;101179.47;;;2.27;61.02
29359;BME280;16347;53.232;6.556;2022-12-13T10:52:27;101183.47;;;2.34;61.34
29359;BME280;16347;53.232;6.556;2022-12-13T10:54:59;101188.72;;;2.35;61.16
29359;BME280;16347;53.232;6.556;2022-12-13T10:57:50;101181.75;;;2.33;60.79
29359;BME280;16347;53.232;6.556;2022-12-13T11:00:35;101185.34;;;2.46;60.90
29359;BME280;16347;53.232;6.556;2022-12-13T11:03:05;101177.56;;;2.55;60.80
29359;BME280;16347;53.232;6.556;2022-12-13T11:05:35;101177.09;;;2.49;61.23
29359;BME280;16347;53.232;6.556;2022-12-13T11:08:15;101177.06;;;2.63;60.92
29359;BME280;16347;53.232;6.556;2022-12-13T11:10:47;101166.38;;;2.76;60.53
29359;BME280;16347;53.232;6.556;2022-12-13T11:13:27;101162.47;;;2.81;60.02
29359;BME280;16347;53.232;6.556;2022-12-13T11:15:57;101157.09;;;2.81;59.69
29359;BME280;16347;53.232;6.556;2022-12-13T11:18:32;101161.84;;;2.90;60.06
29359;BME280;16347;53.232;6.556;2022-12-13T11:21:02;101167.88;;;2.94;59.77
29359;BME280;16347;53.232;6.556;2022-12-13T11:23:36;101153.13;;;2.87;60.04
29359;BME280;16347;53.232;6.556;2022-12-13T11:26:08;101155.44;;;3.05;60.15
29359;BME280;16347;53.232;6.556;2022-12-13T11:28:59;101156.75;;;2.86;60.31
29359;BME280;16347;53.232;6.556;2022-12-13T11:31:43;101149.81;;;2.96;60.89
29359;BME280;16347;53.232;6.556;2022-12-13T11:34:27;101136.22;;;3.12;60.83
29359;BME280;16347;53.232;6.556;2022-12-13T11:37:08;101143.72;;;3.06;60.45
29359;BME280;16347;53.232;6.556;2022-12-13T11:39:43;101134.91;;;3.04;59.90
29359;BME280;16347;53.232;6.556;2022-12-13T11:42:18;101141.97;;;2.93;60.80
29359;BME280;16347;53.232;6.556;2022-12-13T11:44:57;101136.31;;;3.10;60.40
29359;BME280;16347;53.232;6.556;2022-12-13T11:47:33;101123.13;;;3.20;60.18
29359;BME280;16347;53.232;6.556;2022-12-13T11:50:13;101124.84;;;3.21;60.27
29359;BME280;16347;53.232;6.556;2022-12-13T11:53:15;101122.94;;;3.35;60.23
29359;BME280;16347;53.232;6.556;2022-12-13T11:55:51;101115.53;;;3.39;59.85
29359;BME280;16347;53.232;6.556;2022-12-13T11:58:26;101113.25;;;3.58;59.53
29359;BME280;16347;53.232;6.556;2022-12-13T12:01:20;101113.34;;;3.82;58.81
29359;BME280;16347;53.232;6.556;2022-12-13T12:03:56;101111.97;;;3.89;57.70
29359;BME280;16347;53.232;6.556;2022-12-13T12:06:36;101112.16;;;3.98;57.19
29359;BME280;16347;53.232;6.556;2022-12-13T12:09:10;101107.50;;;4.00;56.56
29359;BME280;16347;53.232;6.556;2022-12-13T12:11:44;101105.31;;;4.18;56.32
29359;BME280;16347;53.232;6.556;2022-12-13T12:14:16;101108.69;;;3.96;56.06
29359;BME280;16347;53.232;6.556;2022-12-13T12:16:51;101102.34;;;3.97;56.06
29359;BME280;16347;53.232;6.556;2022-12-13T12:19:22;101107.72;;;3.97;55.75
29359;BME280;16347;53.232;6.556;2022-12-13T12:22:07;101103.94;;;4.00;55.72
29359;BME280;16347;53.232;6.556;2022-12-13T12:24:52;101105.59;;;3.90;55.96
29359;BME280;16347;53.232;6.556;2022-12-13T12:27:30;101101.91;;;4.16;56.08
29359;BME280;16347;53.232;6.556;2022-12-13T12:30:11;101099.16;;;4.29;56.71
29359;BME280;16347;53.232;6.556;2022-12-13T12:32:53;101099.25;;;4.40;55.77
29359;BME280;16347;53.232;6.556;2022-12-13T12:35:42;101086.50;;;4.42;55.16
29359;BME280;16347;53.232;6.556;2022-12-13T12:38:25;101085.25;;;4.58;55.00
29359;BME280;16347;53.232;6.556;2022-12-13T12:41:15;101086.06;;;4.48;54.32
29359;BME280;16347;53.232;6.556;2022-12-13T12:43:50;101077.47;;;4.67;54.08
29359;BME280;16347;53.232;6.556;2022-12-13T12:46:39;101083.34;;;4.72;54.50
29359;BME280;16347;53.232;6.556;2022-12-13T12:50:02;101082.25;;;4.74;54.00
29359;BME280;16347;53.232;6.556;2022-12-13T12:52:43;101079.94;;;4.70;53.27
29359;BME280;16347;53.232;6.556;2022-12-13T12:55:21;101078.25;;;4.80;54.32
29359;BME280;16347;53.232;6.556;2022-12-13T12:57:58;101074.97;;;4.87;53.61
29359;BME280;16347;53.232;6.556;2022-12-13T13:00:35;101074.84;;;4.89;53.14
29359;BME280;16347;53.232;6.556;2022-12-13T13:03:11;101077.16;;;4.82;52.51
29359;BME280;16347;53.232;6.556;2022-12-13T13:05:56;101067.84;;;5.10;52.63
29359;BME280;16347;53.232;6.556;2022-12-13T13:08:34;101077.84;;;5.08;51.92
29359;BME280;16347;53.232;6.556;2022-12-13T13:11:08;101081.59;;;4.83;52.07
29359;BME280;16347;53.232;6.556;2022-12-13T13:14:03;101079.91;;;4.93;52.48
29359;BME280;16347;53.232;6.556;2022-12-13T13:16:36;101084.06;;;4.97;52.88
29359;BME280;16347;53.232;6.556;2022-12-13T13:22:25;101090.56;;;4.71;52.55
29359;BME280;16347;53.232;6.556;2022-12-13T13:25:12;101088.00;;;4.46;53.70
29359;BME280;16347;53.232;6.556;2022-12-13T13:27:43;101087.31;;;4.55;53.32
29359;BME280;16347;53.232;6.556;2022-12-13T13:30:16;101084.63;;;4.31;53.52
29359;BME280;16347;53.232;6.556;2022-12-13T13:32:48;101086.66;;;4.28;53.87
29359;BME280;16347;53.232;6.556;2022-12-13T13:35:49;101083.75;;;4.31;54.41
29359;BME280;16347;53.232;6.556;2022-12-13T13:38:52;101086.34;;;4.32;54.51
29359;BME280;16347;53.232;6.556;2022-12-13T13:44:53;101084.56;;;4.07;55.01